Kandiyohi, MN (56251)

10:39 AM CST on December 04, 2016 (GMT -0600)
Willmar | | Change Station

Elev 1188 ft 45.15 °N, 95.00 °W | Updated 1 minute ago

Overcast
Overcast
33.8 °F
Feels Like 28 °F
N
7.0
Wind Variable Wind from West
Gusts 14.0 mph

Today
High -- | Low -- °F
--% Chance of Precip.
Yesterday
High -- | Low -- °F
Precip. -- in
Pressure 29.82 in
Visibility 7.0 miles
Clouds Overcast 1600 ft
Windchill 28 °F
Dew Point 33 °F
Humidity 96%
Rainfall 0.04 in
Snow Depth Not available.
7:42 AM 4:38 PM
Waxing Crescent, 23% visible
METAR KBDH 041635Z AUTO 20006KT 7SM OVC016 02/01 A2982 RMK AO2
Pressure 29.82 in
Visibility 7.0 miles
Clouds Overcast 1600 ft
Windchill 28 °F
Dew Point 33 °F
Humidity 96%
Rainfall 0.04 in
Snow Depth Not available.
7:42 AM 4:38 PM
Waxing Crescent, 23% visible
METAR KBDH 041635Z AUTO 20006KT 7SM OVC016 02/01 A2982 RMK AO2

10-Day Weather Forecast

Almanac

Astronomy

Dec. 04, 2016 Rise Set
Actual Time
Civil Twilight
Nautical Twilight
Astronomical Twilight
Moon
Length of Visible Light
Length of Day
Tomorrow will be .
, % of the Moon is Illuminated

Today's Extremes

State Highs State Lows

Community

WunderPhotos

Upload Photos

1,955,622 photos uploaded!

WunderBlog® & News

Nearby

Air Quality

  Air Quality AQ Index Pollutant
Not available.

Snow Depth

Station Depth Elevation

Earthquake Activity

City Distance Mag. Time & Date
Minimum magnitude displayed is 2.5.

Coastal Water Temperatures

Place Temperature

Stations

Nearby Weather Stations

Station Location Temp. Windchill Dew Point Humidity Wind Precip. Elev Updated Type
                   

Watches & Warnings

There are currently no watches in effect.